Time;durP1;ratioP1;P1;durP2;ratioP2;P2;SDS_P1;SDS_P2;PMS_P1;PMS_P2;Temp;Humidity;BMP_temperature;BMP_pressure;BME280_temperature;BME280_humidity;BME280_pressure;Samples;Min_cycle;Max_cycle;Signal;HPM_P1;HPM_P2
2022/01/29 01:00:13;;;;;;;21.88;5.22;;;4.30;1.00;;;;;;4921575;28;20236;-88
2022/01/29 01:03:25;;;;;;;9.35;4.35;;;4.30;1.00;;;;;;4946598;28;20897;-89
2022/01/29 01:06:02;;;;;;;12.93;4.82;;;4.30;1.00;;;;;;4978461;28;20231;-88
2022/01/29 01:12:24;;;;;;;16.23;5.30;;;4.20;1.00;;;;;;4939925;28;21207;-88
2022/01/29 01:15:09;;;;;;;12.15;5.60;;;4.20;1.00;;;;;;4952837;28;20243;-90
2022/01/29 01:18:15;;;;;;;14.73;5.45;;;4.20;1.00;;;;;;5042022;23;21185;-88
2022/01/29 01:21:02;;;;;;;;;;;;;;;;;;;;;
2022/01/29 01:23:35;;;;;;;15.57;7.32;;;4.20;1.00;;;;;;5020437;28;20324;-88
2022/01/29 01:29:13;;;;;;;16.33;6.38;;;4.20;1.00;;;;;;5011451;28;20269;-86
2022/01/29 01:31:56;;;;;;;16.83;7.32;;;4.20;1.00;;;;;;5027083;28;20308;-87
2022/01/29 01:37:51;;;;;;;12.90;6.15;;;4.10;1.00;;;;;;4984014;28;20238;-88
2022/01/29 01:50:44;;;;;;;16.23;7.10;;;4.20;1.00;;;;;;4940919;28;20232;-88
2022/01/29 01:54:08;;;;;;;15.77;6.30;;;4.20;1.00;;;;;;5013346;28;20242;-89
2022/01/29 01:57:13;;;;;;;15.75;7.30;;;4.20;1.00;;;;;;4958192;28;20428;-89
2022/01/29 02:07:21;;;;;;;14.90;5.85;;;4.20;1.00;;;;;;4972197;28;20242;-88
2022/01/29 02:19:06;;;;;;;12.48;5.53;;;4.10;1.00;;;;;;4988903;28;20233;-88
2022/01/29 02:22:08;;;;;;;17.48;6.60;;;4.20;1.00;;;;;;5040938;28;20226;-88
2022/01/29 02:31:35;;;;;;;16.52;6.40;;;4.10;1.00;;;;;;4961273;28;20228;-87
2022/01/29 02:34:36;;;;;;;12.88;6.35;;;4.20;1.00;;;;;;4937236;28;20763;-87
2022/01/29 02:37:42;;;;;;;17.73;6.45;;;4.10;1.00;;;;;;4941047;28;20286;-87
2022/01/29 02:40:25;;;;;;;;;;;;;;;;;;;;;
2022/01/29 02:47:31;;;;;;;19.42;7.53;;;4.00;1.00;;;;;;5080371;23;20249;-89
2022/01/29 02:53:43;;;;;;;26.75;12.43;;;4.00;1.00;;;;;;4934255;28;20336;-86
2022/01/29 02:56:16;;;;;;;13.73;6.38;;;3.80;1.00;;;;;;5017005;28;20222;-88
2022/01/29 02:59:51;;;;;;;16.67;7.65;;;3.80;1.00;;;;;;5017443;28;20236;-89
2022/01/29 03:06:43;;;;;;;17.00;7.03;;;3.80;1.00;;;;;;4971084;28;21950;-89
2022/01/29 03:30:55;;;;;;;20.80;7.25;;;3.30;1.00;;;;;;4855997;29;20731;-88
2022/01/29 03:49:04;;;;;;;20.65;8.15;;;3.20;1.00;;;;;;4977284;28;20246;-88
2022/01/29 03:54:32;;;;;;;17.38;8.35;;;3.20;1.00;;;;;;4998840;28;21082;-89
2022/01/29 03:57:11;;;;;;;22.88;8.85;;;3.20;1.00;;;;;;5024711;28;20246;-88
2022/01/29 03:59:38;;;;;;;18.52;9.38;;;3.20;1.00;;;;;;5015078;28;20222;-88
2022/01/29 04:02:23;;;;;;;18.45;8.68;;;3.20;1.00;;;;;;5020940;28;20218;-88
2022/01/29 04:23:38;;;;;;;22.23;9.77;;;3.30;1.00;;;;;;4910440;28;21416;-86
2022/01/29 04:27:14;;;;;;;22.48;11.20;;;3.30;1.00;;;;;;4925397;28;20590;-87
2022/01/29 04:30:01;;;;;;;19.48;10.05;;;3.30;1.00;;;;;;5002870;28;20241;-88
2022/01/29 04:32:56;;;;;;;23.40;11.05;;;3.40;1.00;;;;;;5023116;28;20238;-87
2022/01/29 04:36:09;;;;;;;18.75;10.63;;;3.30;1.00;;;;;;5013750;28;20235;-87
2022/01/29 04:39:12;;;;;;;20.30;9.32;;;3.40;1.00;;;;;;5040828;28;20230;-87
2022/01/29 04:53:00;;;;;;;21.48;12.63;;;3.30;1.00;;;;;;4959261;28;20397;-89
2022/01/29 04:56:11;;;;;;;22.67;11.23;;;3.40;1.00;;;;;;4992804;28;20730;-88
2022/01/29 05:06:49;;;;;;;;;;;;;;;;;;;;;
2022/01/29 05:09:43;;;;;;;22.75;14.00;;;3.30;1.00;;;;;;4970030;28;20294;-88
2022/01/29 05:12:40;;;;;;;27.02;13.23;;;3.40;1.00;;;;;;5020240;28;20310;-88
2022/01/29 05:15:32;;;;;;;20.52;12.07;;;3.40;1.00;;;;;;5018373;28;20710;-88
2022/01/29 05:27:18;;;;;;;17.10;12.13;;;3.40;1.00;;;;;;5033626;28;20253;-89
2022/01/29 05:29:57;;;;;;;27.63;13.75;;;3.40;1.00;;;;;;5029024;28;20230;-88
2022/01/29 05:32:53;;;;;;;20.48;12.38;;;3.40;1.00;;;;;;5025521;28;20349;-89
2022/01/29 05:35:27;;;;;;;25.50;13.73;;;3.40;1.00;;;;;;5035193;28;20793;-89
2022/01/29 05:38:00;;;;;;;24.48;13.10;;;3.40;1.00;;;;;;5025110;28;20234;-89
2022/01/29 05:40:40;;;;;;;18.75;12.63;;;3.50;1.00;;;;;;5020568;28;20247;-87
2022/01/29 05:43:27;;;;;;;22.25;12.73;;;3.50;1.00;;;;;;5022480;28;20221;-87
2022/01/29 05:46:14;;;;;;;26.17;12.68;;;3.40;1.00;;;;;;5026442;28;20728;-88
2022/01/29 05:48:50;;;;;;;22.98;13.30;;;3.50;1.00;;;;;;5022338;28;20306;-88
2022/01/29 05:51:19;;;;;;;17.45;12.23;;;3.50;1.00;;;;;;5023301;28;20222;-87
2022/01/29 05:53:57;;;;;;;23.02;13.40;;;3.50;1.00;;;;;;5020664;28;20234;-86
2022/01/29 05:56:36;;;;;;;21.50;12.70;;;3.50;1.00;;;;;;5020471;28;20229;-85
2022/01/29 05:59:07;;;;;;;25.30;14.45;;;3.50;1.00;;;;;;5019512;28;20280;-86
2022/01/29 06:01:45;;;;;;;24.60;12.77;;;3.50;1.00;;;;;;5022255;28;20221;-85
2022/01/29 06:04:15;;;;;;;22.23;13.77;;;3.50;1.00;;;;;;5019344;28;20229;-85
2022/01/29 06:06:54;;;;;;;22.45;14.40;;;3.50;1.00;;;;;;5040113;28;20297;-84
2022/01/29 06:09:25;;;;;;;24.48;14.93;;;3.50;1.00;;;;;;5051726;28;20244;-83
2022/01/29 06:11:58;;;;;;;23.45;13.68;;;3.60;1.00;;;;;;5048197;28;20221;-85
2022/01/29 06:14:30;;;;;;;24.20;13.95;;;3.50;1.00;;;;;;5048251;28;20215;-84
2022/01/29 06:17:11;;;;;;;23.92;15.32;;;3.60;1.00;;;;;;5042788;28;20225;-86
2022/01/29 06:19:41;;;;;;;19.75;13.98;;;3.50;1.00;;;;;;5058918;28;20213;-84
2022/01/29 06:25:18;;;;;;;22.65;13.40;;;3.60;1.00;;;;;;5044978;28;20222;-84
2022/01/29 06:27:58;;;;;;;21.80;12.57;;;3.60;1.00;;;;;;5032472;28;20260;-86
2022/01/29 06:30:27;;;;;;;22.52;15.65;;;3.60;1.00;;;;;;5021996;28;20246;-88
2022/01/29 06:32:57;;;;;;;22.30;14.85;;;3.60;1.00;;;;;;5025908;28;20222;-88
2022/01/29 06:35:24;;;;;;;23.92;15.05;;;3.60;1.00;;;;;;5025766;28;20304;-87
2022/01/29 06:37:53;;;;;;;19.35;15.43;;;3.60;1.00;;;;;;5023959;28;20248;-87
2022/01/29 06:40:26;;;;;;;25.42;14.75;;;3.60;1.00;;;;;;5020297;28;20221;-87
2022/01/29 06:42:56;;;;;;;21.58;15.05;;;3.70;1.00;;;;;;5026865;28;20643;-88
2022/01/29 06:45:23;;;;;;;28.75;16.90;;;3.70;1.00;;;;;;5028763;28;20253;-88
2022/01/29 06:47:56;;;;;;;22.33;15.98;;;3.70;1.00;;;;;;5038032;28;20238;-88
2022/01/29 06:50:47;;;;;;;24.85;15.15;;;3.60;1.00;;;;;;5024512;28;20344;-89
2022/01/29 06:53:14;;;;;;;25.40;15.70;;;3.70;1.00;;;;;;5030084;28;20230;-87
2022/01/29 06:55:47;;;;;;;21.85;16.23;;;3.70;1.00;;;;;;5026154;28;20322;-88
2022/01/29 07:01:09;;;;;;;22.48;15.02;;;3.70;1.00;;;;;;5022422;28;20786;-88
2022/01/29 07:06:55;;;;;;;28.25;20.00;;;3.70;1.00;;;;;;5020497;28;20325;-87
2022/01/29 07:09:34;;;;;;;26.25;18.30;;;3.70;1.00;;;;;;5020143;28;20256;-88
2022/01/29 07:12:33;;;;;;;23.58;16.25;;;3.80;1.00;;;;;;5026267;28;20233;-89
2022/01/29 07:15:23;;;;;;;27.20;15.25;;;3.80;1.00;;;;;;5022480;28;20228;-89
2022/01/29 07:18:14;;;;;;;22.85;16.92;;;3.80;1.00;;;;;;5019548;28;20250;-88
2022/01/29 07:20:48;;;;;;;27.05;17.63;;;3.80;1.00;;;;;;5021031;28;20240;-88
2022/01/29 07:23:18;;;;;;;29.55;20.77;;;3.80;1.00;;;;;;5019086;28;20305;-87
2022/01/29 07:25:52;;;;;;;20.63;14.95;;;3.90;1.00;;;;;;5023089;28;20226;-88
2022/01/29 07:28:19;;;;;;;20.85;16.65;;;3.90;1.00;;;;;;5020576;28;20257;-87
2022/01/29 07:30:46;;;;;;;23.05;17.15;;;3.90;1.00;;;;;;5015535;28;21122;-87
2022/01/29 07:33:13;;;;;;;24.00;16.85;;;3.90;1.00;;;;;;5012602;28;20328;-88
2022/01/29 07:35:55;;;;;;;24.45;17.20;;;4.00;1.00;;;;;;5012690;28;20223;-88
2022/01/29 07:38:37;;;;;;;26.58;18.00;;;4.00;1.00;;;;;;5015115;28;21044;-88
2022/01/29 07:43:55;;;;;;;34.05;21.15;;;4.00;1.00;;;;;;5021257;28;20317;-88
2022/01/29 07:46:42;;;;;;;25.48;18.40;;;4.00;1.00;;;;;;5019432;28;20229;-88
2022/01/29 07:49:26;;;;;;;24.58;18.40;;;4.00;1.00;;;;;;5027233;28;20230;-87
2022/01/29 08:09:40;;;;;;;23.05;19.75;;;4.10;1.00;;;;;;5002250;28;20246;-88
2022/01/29 08:12:15;;;;;;;27.15;20.83;;;4.10;1.00;;;;;;4998232;28;20231;-87
2022/01/29 08:14:53;;;;;;;22.02;17.25;;;4.20;1.00;;;;;;5011146;28;20218;-88
2022/01/29 08:17:24;;;;;;;29.48;19.50;;;4.20;1.00;;;;;;5013168;28;20354;-87
2022/01/29 08:19:54;;;;;;;26.38;19.38;;;4.20;1.00;;;;;;5018770;28;20318;-88
2022/01/29 08:22:35;;;;;;;29.77;19.20;;;4.20;1.00;;;;;;5034635;28;20245;-87
2022/01/29 08:25:16;;;;;;;26.70;16.75;;;4.20;1.00;;;;;;5032570;28;20278;-86
2022/01/29 08:27:43;;;;;;;23.15;19.13;;;4.20;1.00;;;;;;5036877;28;20206;-88
2022/01/29 08:30:13;;;;;;;28.40;21.30;;;4.20;1.00;;;;;;5036562;28;20245;-87
2022/01/29 08:32:46;;;;;;;24.05;17.98;;;4.30;1.00;;;;;;5037429;28;20286;-89
2022/01/29 08:35:16;;;;;;;26.20;18.20;;;4.30;1.00;;;;;;5025447;28;20261;-87
2022/01/29 08:37:46;;;;;;;21.10;16.45;;;4.40;1.00;;;;;;5040383;28;20238;-87
2022/01/29 08:40:15;;;;;;;24.33;18.92;;;4.40;1.00;;;;;;5001247;28;20303;-86
2022/01/29 08:42:42;;;;;;;24.20;20.70;;;4.40;1.00;;;;;;5003512;28;20285;-85
2022/01/29 08:45:10;;;;;;;24.48;17.92;;;4.40;1.00;;;;;;4995614;28;21027;-85
2022/01/29 08:47:37;;;;;;;24.17;18.95;;;4.40;1.00;;;;;;4996239;28;20767;-82
2022/01/29 08:50:08;;;;;;;28.10;19.55;;;4.40;1.00;;;;;;5005480;28;20859;-85
2022/01/29 08:52:35;;;;;;;27.88;18.63;;;4.40;1.00;;;;;;4997078;28;20226;-85
2022/01/29 08:55:03;;;;;;;24.05;18.63;;;4.40;1.00;;;;;;5018555;28;20242;-86
2022/01/29 08:57:32;;;;;;;25.17;18.35;;;4.50;1.00;;;;;;4999637;28;20318;-87
2022/01/29 08:59:59;;;;;;;24.92;17.00;;;4.50;1.00;;;;;;4996789;28;20227;-86
2022/01/29 09:02:27;;;;;;;24.35;17.30;;;4.50;1.00;;;;;;4998034;28;20227;-87
2022/01/29 09:04:57;;;;;;;24.08;16.65;;;4.60;1.00;;;;;;5001523;28;20227;-87
2022/01/29 09:07:27;;;;;;;21.90;16.63;;;4.60;1.00;;;;;;4999288;28;20231;-85
2022/01/29 09:09:59;;;;;;;24.38;15.88;;;4.60;1.00;;;;;;4999345;28;20246;-86
2022/01/29 09:12:29;;;;;;;22.20;15.52;;;4.70;1.00;;;;;;4999003;28;20235;-86
2022/01/29 09:14:58;;;;;;;19.90;15.95;;;4.70;1.00;;;;;;5010102;28;20219;-87
2022/01/29 09:17:31;;;;;;;24.67;15.60;;;4.70;1.00;;;;;;5020365;28;20226;-86
2022/01/29 09:20:05;;;;;;;22.13;15.20;;;4.70;1.00;;;;;;5001760;28;20324;-86
2022/01/29 09:22:37;;;;;;;20.58;15.27;;;4.70;1.00;;;;;;5022849;28;20211;-86
2022/01/29 09:25:10;;;;;;;21.33;16.40;;;4.80;1.00;;;;;;5016668;28;20207;-87
2022/01/29 09:27:45;;;;;;;19.13;15.95;;;4.90;1.00;;;;;;5039296;28;20274;-86
2022/01/29 09:30:17;;;;;;;22.27;15.07;;;4.90;1.00;;;;;;5026009;28;20227;-87
2022/01/29 09:32:50;;;;;;;19.50;14.73;;;4.90;1.00;;;;;;5002664;28;20223;-84
2022/01/29 09:35:19;;;;;;;20.65;15.25;;;4.90;1.00;;;;;;5004246;28;20349;-86
2022/01/29 09:37:46;;;;;;;20.48;14.27;;;5.00;1.00;;;;;;5003941;28;20992;-86
2022/01/29 09:40:13;;;;;;;25.67;17.48;;;5.00;1.00;;;;;;4997134;28;20226;-84
2022/01/29 09:42:42;;;;;;;19.17;14.60;;;5.10;1.00;;;;;;5003511;28;20227;-86
2022/01/29 09:45:15;;;;;;;19.80;14.10;;;5.10;1.00;;;;;;5016418;28;20586;-85
2022/01/29 09:47:44;;;;;;;19.02;14.90;;;5.10;1.00;;;;;;5032760;28;20235;-86
2022/01/29 09:50:11;;;;;;;21.00;16.63;;;5.20;1.00;;;;;;5010777;28;20310;-86
2022/01/29 09:52:39;;;;;;;20.65;16.42;;;5.20;1.00;;;;;;5017231;28;20234;-86
2022/01/29 09:55:12;;;;;;;22.05;15.20;;;5.20;1.00;;;;;;5022917;28;20271;-91
2022/01/29 09:57:40;;;;;;;27.15;15.52;;;5.30;1.00;;;;;;5004730;28;20270;-86
2022/01/29 10:00:10;;;;;;;24.40;14.82;;;5.30;1.00;;;;;;5001817;28;20226;-88
2022/01/29 10:02:39;;;;;;;23.45;16.95;;;5.30;1.00;;;;;;4992139;28;20790;-87
2022/01/29 10:05:11;;;;;;;22.95;16.30;;;5.40;1.00;;;;;;4998243;28;20278;-89
2022/01/29 10:07:38;;;;;;;22.75;15.75;;;5.40;1.00;;;;;;4997121;28;20322;-88
2022/01/29 10:10:31;;;;;;;24.52;17.17;;;5.50;1.00;;;;;;4997547;28;20231;-88
2022/01/29 10:12:58;;;;;;;26.05;17.00;;;5.50;1.00;;;;;;4993480;28;20302;-88
2022/01/29 10:15:42;;;;;;;24.23;17.85;;;5.50;1.00;;;;;;5015247;28;20281;-89
2022/01/29 10:18:22;;;;;;;27.52;18.13;;;5.60;1.00;;;;;;5008125;28;20219;-90
2022/01/29 10:21:19;;;;;;;25.02;18.17;;;5.60;1.00;;;;;;5016520;28;20238;-89
2022/01/29 10:27:20;;;;;;;25.23;17.73;;;5.80;1.00;;;;;;4998932;28;20257;-86
2022/01/29 10:30:00;;;;;;;26.58;18.42;;;5.80;1.00;;;;;;5002110;28;20277;-87
2022/01/29 10:32:28;;;;;;;27.27;19.30;;;5.80;1.00;;;;;;5010595;28;20590;-87
2022/01/29 10:34:59;;;;;;;27.40;19.63;;;5.90;1.00;;;;;;5021382;28;21082;-88
2022/01/29 10:37:27;;;;;;;27.60;19.30;;;5.90;1.00;;;;;;5032616;28;20321;-87
2022/01/29 10:39:56;;;;;;;25.50;20.67;;;6.00;1.00;;;;;;4993619;28;20338;-88
2022/01/29 10:42:28;;;;;;;30.38;19.65;;;6.00;1.00;;;;;;4994654;28;20227;-87
2022/01/29 10:45:04;;;;;;;29.17;20.90;;;6.10;1.00;;;;;;5003240;28;20250;-88
2022/01/29 10:48:10;;;;;;;27.17;18.77;;;6.10;1.00;;;;;;5002167;28;20235;-88
2022/01/29 10:51:08;;;;;;;27.38;18.08;;;6.20;1.00;;;;;;5000954;28;20316;-88
2022/01/29 10:53:38;;;;;;;27.90;19.98;;;6.20;1.00;;;;;;4998556;28;20250;-86
2022/01/29 10:56:09;;;;;;;29.75;20.52;;;6.20;1.00;;;;;;5024958;28;20235;-89
2022/01/29 10:58:41;;;;;;;26.98;18.42;;;6.30;1.00;;;;;;5013591;28;20223;-87
2022/01/29 11:01:14;;;;;;;26.40;18.52;;;6.30;1.00;;;;;;5002286;28;20223;-87
2022/01/29 11:03:41;;;;;;;25.70;19.77;;;6.30;1.00;;;;;;5000749;28;20230;-87
2022/01/29 11:06:13;;;;;;;28.80;18.67;;;6.30;1.00;;;;;;5004593;28;20246;-87
2022/01/29 11:08:42;;;;;;;24.83;18.30;;;6.40;1.00;;;;;;4998236;28;20223;-87
2022/01/29 11:11:17;;;;;;;26.30;19.30;;;6.40;1.00;;;;;;5019880;28;20292;-86
2022/01/29 11:14:13;;;;;;;26.38;19.10;;;6.50;1.00;;;;;;5020710;28;20283;-86
2022/01/29 11:20:11;;;;;;;23.25;17.45;;;6.50;1.00;;;;;;5021671;28;20231;-89
2022/01/29 11:23:31;;;;;;;23.15;17.05;;;6.50;1.00;;;;;;5024291;28;20219;-89
2022/01/29 11:26:05;;;;;;;20.83;15.93;;;6.60;1.00;;;;;;5029236;28;21322;-91
2022/01/29 11:28:34;;;;;;;23.48;17.27;;;6.70;1.00;;;;;;5010261;28;20230;-89
2022/01/29 11:31:28;;;;;;;20.80;16.77;;;6.70;1.00;;;;;;5003628;28;21501;-92
2022/01/29 11:34:20;;;;;;;23.98;17.60;;;6.70;1.00;;;;;;5007494;28;20234;-89
2022/01/29 11:37:07;;;;;;;17.35;14.55;;;6.80;1.00;;;;;;5000114;28;21045;-91
2022/01/29 11:39:39;;;;;;;22.42;17.27;;;6.80;1.00;;;;;;5003774;28;20223;-91
2022/01/29 11:42:29;;;;;;;21.35;16.98;;;6.80;1.00;;;;;;5009143;28;20301;-92
2022/01/29 11:44:58;;;;;;;20.70;16.00;;;6.90;1.00;;;;;;5004592;28;20315;-89
2022/01/29 11:47:47;;;;;;;17.50;14.77;;;6.90;1.00;;;;;;5003399;28;20234;-91
2022/01/29 11:50:43;;;;;;;18.52;14.65;;;6.90;1.00;;;;;;4994589;28;20317;-89
2022/01/29 11:53:13;;;;;;;18.73;15.85;;;7.00;1.00;;;;;;4998666;28;20227;-91
2022/01/29 11:55:45;;;;;;;19.58;15.63;;;7.00;1.00;;;;;;5003883;28;20294;-89
2022/01/29 11:58:36;;;;;;;19.00;15.60;;;7.00;1.00;;;;;;5008670;28;20235;-91
2022/01/29 12:01:10;;;;;;;20.55;16.40;;;7.10;1.00;;;;;;5003236;28;20310;-90
2022/01/29 12:03:57;;;;;;;18.75;14.90;;;7.10;1.00;;;;;;5004539;28;20222;-90
2022/01/29 12:06:32;;;;;;;16.95;13.93;;;7.10;1.00;;;;;;5004099;28;20225;-91
2022/01/29 12:09:33;;;;;;;16.77;13.82;;;7.10;1.00;;;;;;5006791;28;20393;-91
2022/01/29 12:12:25;;;;;;;15.50;13.18;;;7.20;1.00;;;;;;4997473;28;20244;-90
2022/01/29 12:14:57;;;;;;;14.18;12.13;;;7.20;1.00;;;;;;5025384;28;20258;-90
2022/01/29 12:17:41;;;;;;;13.88;12.18;;;7.20;1.00;;;;;;5011017;28;20353;-90
2022/01/29 12:20:12;;;;;;;15.13;12.25;;;7.20;1.00;;;;;;5000910;28;20253;-87
2022/01/29 12:22:44;;;;;;;15.05;12.30;;;7.20;1.00;;;;;;4993553;28;20231;-87
2022/01/29 12:25:13;;;;;;;15.98;12.65;;;7.20;1.00;;;;;;4997763;28;20231;-88
2022/01/29 12:27:44;;;;;;;15.20;11.98;;;7.30;1.00;;;;;;5007410;28;20215;-90
2022/01/29 12:30:19;;;;;;;14.75;12.50;;;7.30;1.00;;;;;;5037909;28;20215;-90
2022/01/29 12:36:03;;;;;;;15.07;11.95;;;7.30;1.00;;;;;;5024295;28;20235;-89
2022/01/29 12:41:45;;;;;;;15.38;11.68;;;7.40;1.00;;;;;;5001102;28;20226;-90
2022/01/29 13:01:33;;;;;;;11.68;10.15;;;7.50;1.00;;;;;;5018619;28;20253;-91
2022/01/29 13:04:12;;;;;;;11.52;9.10;;;7.60;1.00;;;;;;5018636;28;20318;-89
2022/01/29 13:07:06;;;;;;;11.35;9.10;;;7.60;1.00;;;;;;5023666;28;20227;-89
2022/01/29 13:09:40;;;;;;;10.85;8.68;;;7.70;1.00;;;;;;5019991;28;20227;-89
2022/01/29 13:12:27;;;;;;;10.45;8.23;;;7.70;1.00;;;;;;4995772;28;20721;-88
2022/01/29 13:14:56;;;;;;;10.75;8.13;;;7.80;1.00;;;;;;4998357;28;20231;-88
2022/01/29 13:17:25;;;;;;;13.07;7.80;;;7.80;1.00;;;;;;4999009;28;20800;-87
2022/01/29 13:19:55;;;;;;;10.02;8.20;;;7.80;1.00;;;;;;4994341;28;20849;-87
2022/01/29 13:22:26;;;;;;;9.45;6.78;;;7.90;1.00;;;;;;4999053;28;20968;-88
2022/01/29 13:25:02;;;;;;;10.40;8.00;;;7.90;1.00;;;;;;4994267;28;21229;-87
2022/01/29 13:27:34;;;;;;;9.77;7.50;;;8.00;1.00;;;;;;5001182;28;20224;-88
2022/01/29 13:30:18;;;;;;;8.77;7.07;;;8.00;1.00;;;;;;4996639;28;20226;-87
2022/01/29 13:32:52;;;;;;;7.93;5.80;;;8.10;1.00;;;;;;5002701;28;20236;-90
2022/01/29 13:35:53;;;;;;;6.72;5.85;;;8.20;1.00;;;;;;4999176;28;20240;-90
2022/01/29 13:48:27;;;;;;;7.30;5.63;;;8.40;1.00;;;;;;5024229;28;20479;-91
2022/01/29 13:51:03;;;;;;;5.80;5.20;;;8.40;1.00;;;;;;5036779;28;20452;-91
2022/01/29 13:54:02;;;;;;;7.10;4.50;;;8.40;1.00;;;;;;5035002;28;20220;-92
2022/01/29 13:56:42;;;;;;;6.73;5.13;;;8.50;1.00;;;;;;5013251;28;20643;-91
2022/01/29 13:59:13;;;;;;;7.00;4.55;;;8.60;1.00;;;;;;5007878;28;20448;-90
2022/01/29 14:01:46;;;;;;;5.95;4.32;;;8.60;1.00;;;;;;5011566;28;20226;-91
2022/01/29 14:04:38;;;;;;;5.53;4.40;;;8.60;1.00;;;;;;5020355;28;20285;-92
2022/01/29 14:07:11;;;;;;;6.15;3.97;;;8.60;1.00;;;;;;5026990;28;20551;-89
2022/01/29 14:09:48;;;;;;;4.65;3.35;;;8.70;1.00;;;;;;5019154;28;20280;-90
2022/01/29 14:12:25;;;;;;;7.40;4.70;;;8.70;1.00;;;;;;5014241;28;20227;-90
2022/01/29 14:14:59;;;;;;;4.83;3.80;;;8.80;1.00;;;;;;5011660;28;20236;-89
2022/01/29 14:21:19;;;;;;;;;;;;;;;;;;;;;
2022/01/29 14:23:53;;;;;;;3.93;3.37;;;8.90;1.00;;;;;;5009458;28;20459;-89
2022/01/29 14:26:22;;;;;;;4.23;2.97;;;8.90;1.00;;;;;;5022248;28;20534;-89
2022/01/29 14:29:29;;;;;;;3.70;2.70;;;8.90;1.00;;;;;;5019069;28;20446;-93
2022/01/29 14:32:04;;;;;;;3.87;2.90;;;9.00;1.00;;;;;;5021116;28;20497;-89
2022/01/29 14:34:43;;;;;;;4.80;3.38;;;9.00;1.00;;;;;;5021366;28;20440;-90
2022/01/29 14:37:16;;;;;;;3.17;2.40;;;9.00;1.00;;;;;;5021019;28;20228;-90
2022/01/29 14:40:22;;;;;;;3.58;2.50;;;9.00;1.00;;;;;;5060477;22;20825;-90
2022/01/29 14:42:50;;;;;;;3.53;2.40;;;9.00;1.00;;;;;;5039444;28;20280;-90
2022/01/29 14:45:28;;;;;;;3.60;2.60;;;9.10;1.00;;;;;;5024233;28;20492;-88
2022/01/29 14:47:57;;;;;;;3.90;2.63;;;9.00;1.00;;;;;;5042195;28;20539;-88
2022/01/29 14:50:33;;;;;;;3.80;3.30;;;9.10;1.00;;;;;;5027671;28;20443;-89
2022/01/29 14:56:08;;;;;;;4.18;3.22;;;9.00;1.00;;;;;;5052735;28;20446;-88
2022/01/29 15:01:35;;;;;;;6.17;3.40;;;8.80;1.00;;;;;;5043992;28;20521;-89
2022/01/29 15:04:14;;;;;;;7.78;6.13;;;8.80;1.00;;;;;;5033695;28;20453;-88
2022/01/29 15:06:57;;;;;;;4.75;3.53;;;8.70;1.00;;;;;;5046167;28;21014;-88
2022/01/29 15:09:36;;;;;;;5.83;3.50;;;8.60;1.00;;;;;;5037485;28;20235;-89
2022/01/29 15:12:05;;;;;;;3.77;3.13;;;8.60;1.00;;;;;;5030871;28;20495;-86
2022/01/29 15:14:31;;;;;;;4.75;4.00;;;8.60;1.00;;;;;;5033906;28;21464;-86
2022/01/29 15:16:58;;;;;;;3.85;3.38;;;8.60;1.00;;;;;;5036012;28;20328;-86
2022/01/29 15:19:25;;;;;;;4.67;3.30;;;8.60;1.00;;;;;;5036045;28;20222;-85
2022/01/29 15:21:52;;;;;;;4.80;3.97;;;8.60;1.00;;;;;;5032808;28;20450;-85
2022/01/29 15:24:18;;;;;;;4.47;3.53;;;8.60;1.00;;;;;;5032865;28;20465;-84
2022/01/29 15:26:45;;;;;;;7.43;3.80;;;8.60;1.00;;;;;;5031410;28;20459;-86
2022/01/29 15:29:13;;;;;;;5.40;3.80;;;8.60;1.00;;;;;;5032460;28;20324;-84
2022/01/29 15:31:42;;;;;;;4.00;2.90;;;8.70;1.00;;;;;;5038267;28;20529;-84
2022/01/29 15:34:09;;;;;;;5.53;3.77;;;8.70;1.00;;;;;;5027727;28;20470;-85
2022/01/29 15:36:36;;;;;;;4.80;3.17;;;8.70;1.00;;;;;;5033864;28;21220;-83
2022/01/29 15:39:04;;;;;;;4.43;3.47;;;8.70;1.00;;;;;;5043211;28;20488;-83
2022/01/29 15:41:31;;;;;;;6.37;4.90;;;8.70;1.00;;;;;;5053610;28;20419;-83
2022/01/29 15:43:58;;;;;;;4.55;3.72;;;8.80;1.00;;;;;;5047708;28;20480;-85
2022/01/29 15:46:26;;;;;;;5.22;3.70;;;8.80;1.00;;;;;;5043177;28;20219;-84
2022/01/29 15:48:54;;;;;;;5.43;3.33;;;8.80;1.00;;;;;;5042970;28;20316;-84
2022/01/29 15:51:21;;;;;;;6.67;5.40;;;8.80;1.00;;;;;;5050500;28;20526;-87
2022/01/29 15:53:50;;;;;;;5.40;4.00;;;8.80;1.00;;;;;;5057338;28;20439;-87
2022/01/29 15:56:17;;;;;;;5.73;4.27;;;8.80;1.00;;;;;;5056423;28;20490;-86
2022/01/29 15:58:44;;;;;;;4.60;3.80;;;8.80;1.00;;;;;;5049252;28;20411;-84
2022/01/29 16:01:11;;;;;;;4.70;4.13;;;8.90;1.00;;;;;;5049325;28;20485;-83
2022/01/29 16:03:42;;;;;;;3.70;2.93;;;8.90;1.00;;;;;;5047295;28;20454;-84
2022/01/29 16:06:09;;;;;;;5.47;4.30;;;8.90;1.00;;;;;;5071860;28;20429;-81
2022/01/29 16:08:36;;;;;;;6.63;5.17;;;9.00;1.00;;;;;;5057668;28;20412;-84
2022/01/29 16:11:03;;;;;;;6.47;3.77;;;9.00;1.00;;;;;;5060268;28;20427;-84
2022/01/29 16:13:29;;;;;;;4.20;3.80;;;9.10;1.00;;;;;;5039314;28;20594;-85
2022/01/29 16:15:56;;;;;;;4.23;3.60;;;9.20;1.00;;;;;;5042113;28;20456;-85
2022/01/29 16:18:25;;;;;;;4.30;3.50;;;9.30;1.00;;;;;;5041106;28;20467;-86
2022/01/29 16:20:53;;;;;;;5.43;3.70;;;9.40;1.00;;;;;;5038012;28;20453;-85
2022/01/29 16:23:19;;;;;;;5.33;4.20;;;9.40;1.00;;;;;;5039159;28;20475;-85
2022/01/29 16:25:46;;;;;;;7.70;4.45;;;9.40;1.00;;;;;;5039775;28;20491;-85
2022/01/29 16:28:15;;;;;;;4.87;4.07;;;9.40;1.00;;;;;;5038636;28;20361;-84
2022/01/29 16:30:43;;;;;;;6.00;4.47;;;9.40;1.00;;;;;;5036326;28;20547;-84
2022/01/29 16:33:10;;;;;;;4.80;3.80;;;9.40;1.00;;;;;;5037063;28;20478;-85
2022/01/29 16:35:37;;;;;;;4.60;4.00;;;9.30;1.00;;;;;;5041874;28;20508;-83
2022/01/29 16:38:07;;;;;;;5.90;4.70;;;9.30;1.00;;;;;;5045578;28;20225;-85
2022/01/29 16:40:34;;;;;;;7.25;4.30;;;9.20;1.00;;;;;;5039279;28;20438;-84
2022/01/29 16:43:00;;;;;;;6.87;4.80;;;9.20;1.00;;;;;;5025578;28;20237;-84
2022/01/29 16:45:29;;;;;;;6.53;4.72;;;9.10;1.00;;;;;;5056099;28;20465;-84
2022/01/29 16:47:57;;;;;;;5.27;4.43;;;9.10;1.00;;;;;;5041370;28;21879;-84
2022/01/29 16:50:24;;;;;;;5.60;4.97;;;9.00;1.00;;;;;;5043999;28;20471;-85
2022/01/29 16:52:53;;;;;;;6.53;5.07;;;9.00;1.00;;;;;;5036810;28;20251;-85
2022/01/29 16:55:21;;;;;;;8.43;6.60;;;9.00;1.00;;;;;;5040976;28;20236;-84
2022/01/29 16:57:48;;;;;;;6.37;5.27;;;9.00;1.00;;;;;;5040810;28;20332;-85
2022/01/29 17:00:15;;;;;;;7.53;5.80;;;9.00;1.00;;;;;;5035724;28;20913;-84
2022/01/29 17:02:45;;;;;;;7.55;5.78;;;8.90;1.00;;;;;;5035067;28;20684;-84
2022/01/29 17:05:12;;;;;;;8.70;6.55;;;8.90;1.00;;;;;;5035543;28;20278;-85
2022/01/29 17:07:44;;;;;;;7.90;6.67;;;8.90;1.00;;;;;;5040371;28;21289;-84
2022/01/29 17:10:15;;;;;;;9.10;7.22;;;8.90;1.00;;;;;;5038663;28;21303;-84
2022/01/29 17:12:44;;;;;;;7.75;6.95;;;8.80;1.00;;;;;;5041210;28;20227;-85
2022/01/29 17:15:12;;;;;;;8.43;7.53;;;8.80;1.00;;;;;;5059835;28;20218;-85
2022/01/29 17:17:40;;;;;;;10.47;8.70;;;8.80;1.00;;;;;;5040413;28;20271;-85
2022/01/29 17:20:08;;;;;;;10.00;8.07;;;8.80;1.00;;;;;;5038819;28;20598;-85
2022/01/29 17:22:35;;;;;;;9.32;8.32;;;8.80;1.00;;;;;;5038237;28;20222;-85
2022/01/29 17:25:02;;;;;;;9.70;8.40;;;8.80;1.00;;;;;;5033867;28;20282;-84
2022/01/29 17:27:29;;;;;;;9.60;8.18;;;8.80;1.00;;;;;;5049867;28;20305;-84
2022/01/29 17:29:57;;;;;;;9.33;7.77;;;8.80;1.00;;;;;;5044564;28;20293;-85
2022/01/29 17:32:24;;;;;;;9.25;7.75;;;8.80;1.00;;;;;;5039565;28;21265;-86
2022/01/29 17:34:51;;;;;;;8.50;7.60;;;8.80;1.00;;;;;;5036710;28;20227;-86
2022/01/29 17:37:33;;;;;;;10.30;8.80;;;8.70;1.00;;;;;;5037247;28;20621;-88
2022/01/29 17:46:34;;;;;;;11.88;8.15;;;8.70;1.00;;;;;;5023910;28;20262;-86
2022/01/29 17:49:06;;;;;;;8.65;7.63;;;8.70;1.00;;;;;;5035360;28;20730;-86
2022/01/29 17:51:33;;;;;;;8.93;6.80;;;8.80;1.00;;;;;;5043351;28;20565;-88
2022/01/29 17:54:02;;;;;;;8.87;7.53;;;8.80;1.00;;;;;;5042539;28;20325;-86
2022/01/29 17:56:29;;;;;;;9.23;7.28;;;8.80;1.00;;;;;;5052061;28;20445;-86
2022/01/29 17:59:08;;;;;;;8.13;6.45;;;8.80;1.00;;;;;;5042936;28;20337;-86
2022/01/29 18:01:43;;;;;;;7.43;6.45;;;8.80;1.00;;;;;;5050694;28;20218;-87
2022/01/29 18:04:13;;;;;;;9.25;7.13;;;8.80;1.00;;;;;;5049439;28;20235;-86
2022/01/29 18:06:43;;;;;;;8.50;7.45;;;8.80;1.00;;;;;;5043350;28;21003;-86
2022/01/29 18:09:11;;;;;;;8.40;6.60;;;8.80;1.00;;;;;;5043065;28;20215;-86
2022/01/29 18:11:38;;;;;;;9.60;7.25;;;8.80;1.00;;;;;;5050388;28;20424;-86
2022/01/29 18:14:05;;;;;;;9.70;6.80;;;8.80;1.00;;;;;;5070362;28;20235;-85
2022/01/29 18:16:32;;;;;;;7.35;6.15;;;8.80;1.00;;;;;;5073017;28;20428;-86
2022/01/29 18:19:00;;;;;;;7.83;6.27;;;8.80;1.00;;;;;;5069955;28;20315;-85
2022/01/29 18:21:28;;;;;;;7.87;6.63;;;8.90;1.00;;;;;;5066430;28;20465;-85
2022/01/29 18:23:56;;;;;;;9.65;7.22;;;8.90;1.00;;;;;;5068039;28;20770;-84
2022/01/29 18:26:30;;;;;;;8.93;6.85;;;8.90;1.00;;;;;;5059197;28;20229;-84
2022/01/29 18:29:00;;;;;;;6.97;5.60;;;8.90;1.00;;;;;;5055436;28;20303;-84
2022/01/29 18:31:28;;;;;;;7.93;6.20;;;9.00;1.00;;;;;;5044514;28;20475;-85
2022/01/29 18:33:55;;;;;;;9.30;6.53;;;9.10;1.00;;;;;;5038790;28;20237;-84